sensor_id;sensor_type;location;lat;lon;timestamp;pressure;altitude;pressure_sealevel;temperature
71081;BMP180;58740;50.672;18.690;2023-08-12T00:01:24;99630.40;;;16.10
71081;BMP180;58740;50.672;18.690;2023-08-12T00:03:53;99631.80;;;16.10
71081;BMP180;58740;50.672;18.690;2023-08-12T00:06:21;99633.80;;;16.10
71081;BMP180;58740;50.672;18.690;2023-08-12T00:08:49;99635.60;;;16.10
71081;BMP180;58740;50.672;18.690;2023-08-12T00:11:17;99632.00;;;16.10
71081;BMP180;58740;50.672;18.690;2023-08-12T00:13:44;99628.80;;;16.08
71081;BMP180;58740;50.672;18.690;2023-08-12T00:16:12;99636.20;;;16.00
71081;BMP180;58740;50.672;18.690;2023-08-12T00:18:40;99635.00;;;16.04
71081;BMP180;58740;50.672;18.690;2023-08-12T00:21:09;99631.40;;;16.00
71081;BMP180;58740;50.672;18.690;2023-08-12T00:23:40;99627.20;;;16.00
71081;BMP180;58740;50.672;18.690;2023-08-12T00:26:08;99631.60;;;16.00
71081;BMP180;58740;50.672;18.690;2023-08-12T00:28:36;99628.60;;;16.00
71081;BMP180;58740;50.672;18.690;2023-08-12T00:31:04;99636.40;;;15.98
71081;BMP180;58740;50.672;18.690;2023-08-12T00:33:32;99640.80;;;15.90
71081;BMP180;58740;50.672;18.690;2023-08-12T00:36:01;99642.80;;;15.90
71081;BMP180;58740;50.672;18.690;2023-08-12T00:38:29;99639.60;;;15.90
71081;BMP180;58740;50.672;18.690;2023-08-12T00:40:56;99637.40;;;15.88
71081;BMP180;58740;50.672;18.690;2023-08-12T00:43:25;99629.00;;;15.80
71081;BMP180;58740;50.672;18.690;2023-08-12T00:45:53;99627.00;;;15.80
71081;BMP180;58740;50.672;18.690;2023-08-12T00:48:21;99622.40;;;15.80
71081;BMP180;58740;50.672;18.690;2023-08-12T00:50:51;99620.60;;;15.80
71081;BMP180;58740;50.672;18.690;2023-08-12T00:53:20;99619.40;;;15.80
71081;BMP180;58740;50.672;18.690;2023-08-12T00:55:48;99615.20;;;15.80
71081;BMP180;58740;50.672;18.690;2023-08-12T00:58:16;99613.80;;;15.80
71081;BMP180;58740;50.672;18.690;2023-08-12T01:00:44;99609.80;;;15.80
71081;BMP180;58740;50.672;18.690;2023-08-12T01:03:12;99610.00;;;15.80
71081;BMP180;58740;50.672;18.690;2023-08-12T01:05:40;99612.80;;;15.78
71081;BMP180;58740;50.672;18.690;2023-08-12T01:08:08;99609.40;;;15.70
71081;BMP180;58740;50.672;18.690;2023-08-12T01:10:39;99609.40;;;15.70
71081;BMP180;58740;50.672;18.690;2023-08-12T01:13:38;99610.60;;;15.70
71081;BMP180;58740;50.672;18.690;2023-08-12T01:16:13;99613.00;;;15.70
71081;BMP180;58740;50.672;18.690;2023-08-12T01:18:44;99612.80;;;15.60
71081;BMP180;58740;50.672;18.690;2023-08-12T01:21:16;99618.60;;;15.60
71081;BMP180;58740;50.672;18.690;2023-08-12T01:23:44;99617.20;;;15.60
71081;BMP180;58740;50.672;18.690;2023-08-12T01:26:12;99615.80;;;15.60
71081;BMP180;58740;50.672;18.690;2023-08-12T01:28:40;99620.20;;;15.60
71081;BMP180;58740;50.672;18.690;2023-08-12T01:31:47;99619.40;;;15.58
71081;BMP180;58740;50.672;18.690;2023-08-12T01:34:35;99621.40;;;15.50
71081;BMP180;58740;50.672;18.690;2023-08-12T01:37:11;99625.20;;;15.50
71081;BMP180;58740;50.672;18.690;2023-08-12T01:39:41;99624.00;;;15.50
71081;BMP180;58740;50.672;18.690;2023-08-12T01:42:11;99619.20;;;15.48
71081;BMP180;58740;50.672;18.690;2023-08-12T01:44:40;99623.80;;;15.40
71081;BMP180;58740;50.672;18.690;2023-08-12T01:47:09;99624.40;;;15.40
71081;BMP180;58740;50.672;18.690;2023-08-12T01:49:37;99628.20;;;15.40
71081;BMP180;58740;50.672;18.690;2023-08-12T01:52:05;99629.80;;;15.40
71081;BMP180;58740;50.672;18.690;2023-08-12T01:54:34;99634.60;;;15.40
71081;BMP180;58740;50.672;18.690;2023-08-12T01:57:04;99631.80;;;15.34
71081;BMP180;58740;50.672;18.690;2023-08-12T01:59:38;99636.00;;;15.30
71081;BMP180;58740;50.672;18.690;2023-08-12T02:02:06;99633.40;;;15.30
71081;BMP180;58740;50.672;18.690;2023-08-12T02:04:33;99638.80;;;15.30
71081;BMP180;58740;50.672;18.690;2023-08-12T02:07:01;99632.40;;;15.30
71081;BMP180;58740;50.672;18.690;2023-08-12T02:09:29;99631.60;;;15.30
71081;BMP180;58740;50.672;18.690;2023-08-12T02:11:58;99633.40;;;15.30
71081;BMP180;58740;50.672;18.690;2023-08-12T02:14:26;99631.60;;;15.30
71081;BMP180;58740;50.672;18.690;2023-08-12T02:16:53;99627.80;;;15.30
71081;BMP180;58740;50.672;18.690;2023-08-12T02:19:21;99633.00;;;15.30
71081;BMP180;58740;50.672;18.690;2023-08-12T02:21:49;99633.40;;;15.26
71081;BMP180;58740;50.672;18.690;2023-08-12T02:24:17;99628.00;;;15.20
71081;BMP180;58740;50.672;18.690;2023-08-12T02:26:44;99627.00;;;15.20
71081;BMP180;58740;50.672;18.690;2023-08-12T02:29:12;99618.60;;;15.20
71081;BMP180;58740;50.672;18.690;2023-08-12T02:31:40;99612.80;;;15.12
71081;BMP180;58740;50.672;18.690;2023-08-12T02:34:07;99615.40;;;15.10
71081;BMP180;58740;50.672;18.690;2023-08-12T02:36:35;99611.60;;;15.10
71081;BMP180;58740;50.672;18.690;2023-08-12T02:39:03;99605.80;;;15.10
71081;BMP180;58740;50.672;18.690;2023-08-12T02:41:32;99611.00;;;15.02
71081;BMP180;58740;50.672;18.690;2023-08-12T02:44:00;99612.20;;;15.06
71081;BMP180;58740;50.672;18.690;2023-08-12T02:46:27;99600.80;;;15.00
71081;BMP180;58740;50.672;18.690;2023-08-12T02:48:55;99601.60;;;15.00
71081;BMP180;58740;50.672;18.690;2023-08-12T02:51:23;99604.80;;;14.98
71081;BMP180;58740;50.672;18.690;2023-08-12T02:53:51;99604.00;;;14.92
71081;BMP180;58740;50.672;18.690;2023-08-12T02:56:18;99609.80;;;14.90
71081;BMP180;58740;50.672;18.690;2023-08-12T02:58:46;99607.20;;;14.90
71081;BMP180;58740;50.672;18.690;2023-08-12T03:01:15;99609.40;;;14.90
71081;BMP180;58740;50.672;18.690;2023-08-12T03:03:43;99608.60;;;14.90
71081;BMP180;58740;50.672;18.690;2023-08-12T03:06:11;99614.20;;;14.90
71081;BMP180;58740;50.672;18.690;2023-08-12T03:08:39;99612.80;;;14.80
71081;BMP180;58740;50.672;18.690;2023-08-12T03:11:06;99622.00;;;14.80
71081;BMP180;58740;50.672;18.690;2023-08-12T03:13:34;99622.00;;;14.80
71081;BMP180;58740;50.672;18.690;2023-08-12T03:16:02;99619.40;;;14.80
71081;BMP180;58740;50.672;18.690;2023-08-12T03:18:30;99617.80;;;14.80
71081;BMP180;58740;50.672;18.690;2023-08-12T03:20:58;99620.40;;;14.80
71081;BMP180;58740;50.672;18.690;2023-08-12T03:23:26;99618.40;;;14.80
71081;BMP180;58740;50.672;18.690;2023-08-12T03:25:54;99619.20;;;14.80
71081;BMP180;58740;50.672;18.690;2023-08-12T03:28:21;99622.60;;;14.80
71081;BMP180;58740;50.672;18.690;2023-08-12T03:30:51;99621.20;;;14.80
71081;BMP180;58740;50.672;18.690;2023-08-12T03:33:19;99613.80;;;14.80
71081;BMP180;58740;50.672;18.690;2023-08-12T03:35:49;99614.80;;;14.80
71081;BMP180;58740;50.672;18.690;2023-08-12T03:38:16;99618.60;;;14.76
71081;BMP180;58740;50.672;18.690;2023-08-12T03:40:45;99615.40;;;14.70
71081;BMP180;58740;50.672;18.690;2023-08-12T03:43:13;99616.20;;;14.70
71081;BMP180;58740;50.672;18.690;2023-08-12T03:45:44;99615.40;;;14.70
71081;BMP180;58740;50.672;18.690;2023-08-12T03:48:12;99616.20;;;14.70
71081;BMP180;58740;50.672;18.690;2023-08-12T03:50:42;99614.60;;;14.70
71081;BMP180;58740;50.672;18.690;2023-08-12T03:53:10;99613.20;;;14.70
71081;BMP180;58740;50.672;18.690;2023-08-12T03:55:38;99615.80;;;14.70
71081;BMP180;58740;50.672;18.690;2023-08-12T03:58:06;99615.20;;;14.78
71081;BMP180;58740;50.672;18.690;2023-08-12T04:00:33;99611.40;;;14.80
71081;BMP180;58740;50.672;18.690;2023-08-12T04:03:01;99613.80;;;14.80
71081;BMP180;58740;50.672;18.690;2023-08-12T04:05:30;99612.40;;;14.80
71081;BMP180;58740;50.672;18.690;2023-08-12T04:07:58;99614.40;;;14.80
71081;BMP180;58740;50.672;18.690;2023-08-12T04:10:26;99613.60;;;14.88
71081;BMP180;58740;50.672;18.690;2023-08-12T04:12:53;99615.00;;;14.90
71081;BMP180;58740;50.672;18.690;2023-08-12T04:15:21;99604.20;;;14.90
71081;BMP180;58740;50.672;18.690;2023-08-12T04:17:49;99605.60;;;15.00
71081;BMP180;58740;50.672;18.690;2023-08-12T04:20:17;99609.40;;;15.00
71081;BMP180;58740;50.672;18.690;2023-08-12T04:22:45;99609.80;;;15.00
71081;BMP180;58740;50.672;18.690;2023-08-12T04:25:16;99607.40;;;15.10
71081;BMP180;58740;50.672;18.690;2023-08-12T04:27:44;99603.00;;;15.10
71081;BMP180;58740;50.672;18.690;2023-08-12T04:30:18;99606.60;;;15.20
71081;BMP180;58740;50.672;18.690;2023-08-12T04:32:46;99603.40;;;15.22
71081;BMP180;58740;50.672;18.690;2023-08-12T04:35:14;99606.80;;;15.30
71081;BMP180;58740;50.672;18.690;2023-08-12T04:37:42;99609.00;;;15.38
71081;BMP180;58740;50.672;18.690;2023-08-12T04:40:10;99603.20;;;15.50
71081;BMP180;58740;50.672;18.690;2023-08-12T04:42:39;99606.40;;;15.60
71081;BMP180;58740;50.672;18.690;2023-08-12T04:45:07;99602.80;;;15.60
71081;BMP180;58740;50.672;18.690;2023-08-12T04:47:35;99604.60;;;15.70
71081;BMP180;58740;50.672;18.690;2023-08-12T04:50:03;99609.60;;;15.80
71081;BMP180;58740;50.672;18.690;2023-08-12T04:52:31;99604.20;;;15.82
71081;BMP180;58740;50.672;18.690;2023-08-12T04:54:59;99608.40;;;15.90
71081;BMP180;58740;50.672;18.690;2023-08-12T04:57:27;99601.80;;;15.90
71081;BMP180;58740;50.672;18.690;2023-08-12T04:59:55;99608.40;;;16.00
71081;BMP180;58740;50.672;18.690;2023-08-12T05:02:23;99605.40;;;16.10
71081;BMP180;58740;50.672;18.690;2023-08-12T05:04:51;99604.80;;;16.18
71081;BMP180;58740;50.672;18.690;2023-08-12T05:07:19;99609.80;;;16.20
71081;BMP180;58740;50.672;18.690;2023-08-12T05:09:47;99609.60;;;16.30
71081;BMP180;58740;50.672;18.690;2023-08-12T05:12:15;99607.60;;;16.40
71081;BMP180;58740;50.672;18.690;2023-08-12T05:14:43;99607.00;;;16.40
71081;BMP180;58740;50.672;18.690;2023-08-12T05:17:10;99606.20;;;16.50
71081;BMP180;58740;50.672;18.690;2023-08-12T05:19:38;99594.20;;;16.50
71081;BMP180;58740;50.672;18.690;2023-08-12T05:22:06;99598.20;;;16.60
71081;BMP180;58740;50.672;18.690;2023-08-12T05:24:34;99590.20;;;16.60
71081;BMP180;58740;50.672;18.690;2023-08-12T05:27:02;99589.40;;;16.70
71081;BMP180;58740;50.672;18.690;2023-08-12T05:29:30;99592.80;;;16.80
71081;BMP180;58740;50.672;18.690;2023-08-12T05:31:58;99597.40;;;16.80
71081;BMP180;58740;50.672;18.690;2023-08-12T05:34:26;99598.40;;;16.90
71081;BMP180;58740;50.672;18.690;2023-08-12T05:36:54;99600.20;;;16.90
71081;BMP180;58740;50.672;18.690;2023-08-12T05:39:22;99598.60;;;17.00
71081;BMP180;58740;50.672;18.690;2023-08-12T05:41:50;99596.20;;;17.04
71081;BMP180;58740;50.672;18.690;2023-08-12T05:44:19;99599.20;;;17.10
71081;BMP180;58740;50.672;18.690;2023-08-12T05:46:47;99604.20;;;17.20
71081;BMP180;58740;50.672;18.690;2023-08-12T05:49:15;99601.80;;;17.30
71081;BMP180;58740;50.672;18.690;2023-08-12T05:51:43;99599.60;;;17.40
71081;BMP180;58740;50.672;18.690;2023-08-12T05:54:11;99597.60;;;17.50
71081;BMP180;58740;50.672;18.690;2023-08-12T05:56:38;99595.40;;;17.60
71081;BMP180;58740;50.672;18.690;2023-08-12T05:59:06;99595.60;;;17.70
71081;BMP180;58740;50.672;18.690;2023-08-12T06:01:34;99602.80;;;17.90
71081;BMP180;58740;50.672;18.690;2023-08-12T06:04:02;99595.80;;;18.00
71081;BMP180;58740;50.672;18.690;2023-08-12T06:06:30;99595.80;;;18.10
71081;BMP180;58740;50.672;18.690;2023-08-12T06:08:58;99595.20;;;18.20
71081;BMP180;58740;50.672;18.690;2023-08-12T06:11:25;99594.20;;;18.30
71081;BMP180;58740;50.672;18.690;2023-08-12T06:13:53;99598.80;;;18.50
71081;BMP180;58740;50.672;18.690;2023-08-12T06:16:21;99595.00;;;18.60
71081;BMP180;58740;50.672;18.690;2023-08-12T06:18:49;99587.80;;;18.68
71081;BMP180;58740;50.672;18.690;2023-08-12T06:21:17;99596.00;;;18.78
71081;BMP180;58740;50.672;18.690;2023-08-12T06:23:45;99599.80;;;18.90
71081;BMP180;58740;50.672;18.690;2023-08-12T06:26:13;99595.80;;;19.00
71081;BMP180;58740;50.672;18.690;2023-08-12T06:28:40;99596.80;;;19.10
71081;BMP180;58740;50.672;18.690;2023-08-12T06:31:08;99600.00;;;19.30
71081;BMP180;58740;50.672;18.690;2023-08-12T06:33:36;99587.00;;;19.40
71081;BMP180;58740;50.672;18.690;2023-08-12T06:36:04;99584.40;;;19.50
71081;BMP180;58740;50.672;18.690;2023-08-12T06:38:32;99580.80;;;19.50
71081;BMP180;58740;50.672;18.690;2023-08-12T06:41:00;99578.40;;;19.60
71081;BMP180;58740;50.672;18.690;2023-08-12T06:43:28;99578.00;;;19.60
71081;BMP180;58740;50.672;18.690;2023-08-12T06:45:57;99576.40;;;19.70
71081;BMP180;58740;50.672;18.690;2023-08-12T06:48:25;99571.80;;;19.72
71081;BMP180;58740;50.672;18.690;2023-08-12T06:50:56;99571.80;;;19.80
71081;BMP180;58740;50.672;18.690;2023-08-12T06:53:26;99575.60;;;19.90
71081;BMP180;58740;50.672;18.690;2023-08-12T06:55:54;99576.40;;;20.00
71081;BMP180;58740;50.672;18.690;2023-08-12T06:58:22;99575.20;;;20.12
71081;BMP180;58740;50.672;18.690;2023-08-12T07:00:50;99567.00;;;20.24
71081;BMP180;58740;50.672;18.690;2023-08-12T07:03:20;99564.20;;;20.40
71081;BMP180;58740;50.672;18.690;2023-08-12T07:05:48;99568.60;;;20.46
71081;BMP180;58740;50.672;18.690;2023-08-12T07:08:16;99568.00;;;20.50
71081;BMP180;58740;50.672;18.690;2023-08-12T07:10:44;99570.60;;;20.60
71081;BMP180;58740;50.672;18.690;2023-08-12T07:13:11;99570.20;;;20.76
71081;BMP180;58740;50.672;18.690;2023-08-12T07:15:39;99564.40;;;20.82
71081;BMP180;58740;50.672;18.690;2023-08-12T07:18:07;99565.20;;;20.90
71081;BMP180;58740;50.672;18.690;2023-08-12T07:20:35;99562.40;;;21.00
71081;BMP180;58740;50.672;18.690;2023-08-12T07:23:03;99566.80;;;21.10
71081;BMP180;58740;50.672;18.690;2023-08-12T07:25:31;99569.20;;;21.12
71081;BMP180;58740;50.672;18.690;2023-08-12T07:27:59;99568.80;;;21.22
71081;BMP180;58740;50.672;18.690;2023-08-12T07:30:26;99568.20;;;21.40
71081;BMP180;58740;50.672;18.690;2023-08-12T07:32:54;99563.40;;;21.50
71081;BMP180;58740;50.672;18.690;2023-08-12T07:35:22;99567.00;;;21.60
71081;BMP180;58740;50.672;18.690;2023-08-12T07:37:50;99564.20;;;21.60
71081;BMP180;58740;50.672;18.690;2023-08-12T07:40:18;99563.20;;;21.70
71081;BMP180;58740;50.672;18.690;2023-08-12T07:42:45;99561.80;;;21.70
71081;BMP180;58740;50.672;18.690;2023-08-12T07:45:13;99561.60;;;21.80
71081;BMP180;58740;50.672;18.690;2023-08-12T07:47:41;99562.20;;;21.88
71081;BMP180;58740;50.672;18.690;2023-08-12T07:50:09;99559.20;;;21.90
71081;BMP180;58740;50.672;18.690;2023-08-12T07:52:38;99558.80;;;22.00
71081;BMP180;58740;50.672;18.690;2023-08-12T07:55:06;99562.00;;;22.10
71081;BMP180;58740;50.672;18.690;2023-08-12T07:57:34;99553.80;;;22.20
71081;BMP180;58740;50.672;18.690;2023-08-12T08:00:03;99546.20;;;22.28
71081;BMP180;58740;50.672;18.690;2023-08-12T08:02:31;99543.20;;;22.30
71081;BMP180;58740;50.672;18.690;2023-08-12T08:04:59;99541.60;;;22.30
71081;BMP180;58740;50.672;18.690;2023-08-12T08:07:27;99537.80;;;22.30
71081;BMP180;58740;50.672;18.690;2023-08-12T08:09:55;99538.60;;;22.40
71081;BMP180;58740;50.672;18.690;2023-08-12T08:12:23;99537.20;;;22.48
71081;BMP180;58740;50.672;18.690;2023-08-12T08:14:51;99534.80;;;22.50
71081;BMP180;58740;50.672;18.690;2023-08-12T08:17:19;99537.80;;;22.60
71081;BMP180;58740;50.672;18.690;2023-08-12T08:19:47;99536.80;;;22.70
71081;BMP180;58740;50.672;18.690;2023-08-12T08:22:15;99527.80;;;22.70
71081;BMP180;58740;50.672;18.690;2023-08-12T08:24:42;99527.00;;;22.70
71081;BMP180;58740;50.672;18.690;2023-08-12T08:27:10;99531.00;;;22.80
71081;BMP180;58740;50.672;18.690;2023-08-12T08:29:38;99530.80;;;22.80
71081;BMP180;58740;50.672;18.690;2023-08-12T08:32:06;99527.00;;;22.86
71081;BMP180;58740;50.672;18.690;2023-08-12T08:34:34;99528.40;;;22.90
71081;BMP180;58740;50.672;18.690;2023-08-12T08:37:02;99526.00;;;22.90
71081;BMP180;58740;50.672;18.690;2023-08-12T08:39:30;99526.40;;;23.00
71081;BMP180;58740;50.672;18.690;2023-08-12T08:41:59;99524.80;;;23.00
71081;BMP180;58740;50.672;18.690;2023-08-12T08:44:29;99524.00;;;23.06
71081;BMP180;58740;50.672;18.690;2023-08-12T08:47:01;99517.60;;;23.10
71081;BMP180;58740;50.672;18.690;2023-08-12T08:49:30;99518.40;;;23.20
71081;BMP180;58740;50.672;18.690;2023-08-12T08:52:00;99514.80;;;23.20
71081;BMP180;58740;50.672;18.690;2023-08-12T08:54:28;99514.60;;;23.30
71081;BMP180;58740;50.672;18.690;2023-08-12T08:56:56;99511.00;;;23.38
71081;BMP180;58740;50.672;18.690;2023-08-12T08:59:33;99512.40;;;23.40
71081;BMP180;58740;50.672;18.690;2023-08-12T09:02:02;99518.60;;;23.50
71081;BMP180;58740;50.672;18.690;2023-08-12T09:04:30;99512.80;;;23.50
71081;BMP180;58740;50.672;18.690;2023-08-12T09:06:59;99518.60;;;23.58
71081;BMP180;58740;50.672;18.690;2023-08-12T09:09:28;99516.00;;;23.60
71081;BMP180;58740;50.672;18.690;2023-08-12T09:11:56;99511.00;;;23.60
71081;BMP180;58740;50.672;18.690;2023-08-12T09:14:24;99504.80;;;23.70
71081;BMP180;58740;50.672;18.690;2023-08-12T09:16:52;99505.20;;;23.70
71081;BMP180;58740;50.672;18.690;2023-08-12T09:19:22;99505.60;;;23.70
71081;BMP180;58740;50.672;18.690;2023-08-12T09:21:54;99503.40;;;23.70
71081;BMP180;58740;50.672;18.690;2023-08-12T09:24:26;99499.60;;;23.80
71081;BMP180;58740;50.672;18.690;2023-08-12T09:26:54;99494.60;;;23.80
71081;BMP180;58740;50.672;18.690;2023-08-12T09:29:33;99498.20;;;23.90
71081;BMP180;58740;50.672;18.690;2023-08-12T09:32:13;99499.60;;;23.90
71081;BMP180;58740;50.672;18.690;2023-08-12T09:34:52;99498.60;;;23.90
71081;BMP180;58740;50.672;18.690;2023-08-12T09:37:23;99497.40;;;24.00
71081;BMP180;58740;50.672;18.690;2023-08-12T09:39:52;99489.80;;;24.00
71081;BMP180;58740;50.672;18.690;2023-08-12T09:42:20;99491.20;;;24.02
71081;BMP180;58740;50.672;18.690;2023-08-12T09:44:48;99488.00;;;24.10
71081;BMP180;58740;50.672;18.690;2023-08-12T09:47:16;99491.40;;;24.10
71081;BMP180;58740;50.672;18.690;2023-08-12T09:49:44;99488.40;;;24.10
71081;BMP180;58740;50.672;18.690;2023-08-12T09:52:11;99491.00;;;24.10
71081;BMP180;58740;50.672;18.690;2023-08-12T09:54:41;99485.20;;;24.10
71081;BMP180;58740;50.672;18.690;2023-08-12T09:57:10;99483.80;;;24.10
71081;BMP180;58740;50.672;18.690;2023-08-12T09:59:41;99478.40;;;24.10
71081;BMP180;58740;50.672;18.690;2023-08-12T10:02:15;99475.40;;;24.10
71081;BMP180;58740;50.672;18.690;2023-08-12T10:04:49;99474.80;;;24.10
71081;BMP180;58740;50.672;18.690;2023-08-12T10:07:19;99473.80;;;24.10
71081;BMP180;58740;50.672;18.690;2023-08-12T10:09:48;99465.80;;;24.20
71081;BMP180;58740;50.672;18.690;2023-08-12T10:12:17;99457.60;;;24.20
71081;BMP180;58740;50.672;18.690;2023-08-12T10:14:47;99457.80;;;24.26
71081;BMP180;58740;50.672;18.690;2023-08-12T10:17:15;99460.20;;;24.30
71081;BMP180;58740;50.672;18.690;2023-08-12T10:20:03;99454.40;;;24.30
71081;BMP180;58740;50.672;18.690;2023-08-12T10:22:33;99446.80;;;24.40
71081;BMP180;58740;50.672;18.690;2023-08-12T10:25:03;99445.60;;;24.40
71081;BMP180;58740;50.672;18.690;2023-08-12T10:27:31;99439.20;;;24.40
71081;BMP180;58740;50.672;18.690;2023-08-12T10:30:02;99449.20;;;24.40
71081;BMP180;58740;50.672;18.690;2023-08-12T10:32:31;99444.20;;;24.46
71081;BMP180;58740;50.672;18.690;2023-08-12T10:35:00;99441.00;;;24.46
71081;BMP180;58740;50.672;18.690;2023-08-12T10:37:33;99441.80;;;24.50
71081;BMP180;58740;50.672;18.690;2023-08-12T10:40:06;99438.20;;;24.50
71081;BMP180;58740;50.672;18.690;2023-08-12T10:42:45;99442.60;;;24.50
71081;BMP180;58740;50.672;18.690;2023-08-12T10:45:16;99443.80;;;24.56
71081;BMP180;58740;50.672;18.690;2023-08-12T10:50:30;99441.80;;;24.60
71081;BMP180;58740;50.672;18.690;2023-08-12T10:52:58;99438.20;;;24.60
71081;BMP180;58740;50.672;18.690;2023-08-12T10:55:27;99438.60;;;24.70
71081;BMP180;58740;50.672;18.690;2023-08-12T10:57:58;99444.00;;;24.70
71081;BMP180;58740;50.672;18.690;2023-08-12T11:00:27;99443.40;;;24.80
71081;BMP180;58740;50.672;18.690;2023-08-12T11:02:58;99445.80;;;24.80
71081;BMP180;58740;50.672;18.690;2023-08-12T11:05:37;99442.40;;;24.82
71081;BMP180;58740;50.672;18.690;2023-08-12T11:08:05;99441.60;;;24.90
71081;BMP180;58740;50.672;18.690;2023-08-12T11:10:34;99437.40;;;24.90
71081;BMP180;58740;50.672;18.690;2023-08-12T11:13:03;99430.80;;;24.90
71081;BMP180;58740;50.672;18.690;2023-08-12T11:15:40;99427.00;;;24.90
71081;BMP180;58740;50.672;18.690;2023-08-12T11:18:19;99422.20;;;24.90
71081;BMP180;58740;50.672;18.690;2023-08-12T11:20:49;99413.40;;;24.90
71081;BMP180;58740;50.672;18.690;2023-08-12T11:23:17;99411.80;;;24.90
71081;BMP180;58740;50.672;18.690;2023-08-12T11:25:45;99412.80;;;25.00
71081;BMP180;58740;50.672;18.690;2023-08-12T11:28:13;99403.60;;;25.00
71081;BMP180;58740;50.672;18.690;2023-08-12T11:30:41;99395.00;;;25.00
71081;BMP180;58740;50.672;18.690;2023-08-12T11:33:11;99402.00;;;25.02
71081;BMP180;58740;50.672;18.690;2023-08-12T11:35:39;99396.60;;;25.10
71081;BMP180;58740;50.672;18.690;2023-08-12T11:38:07;99391.40;;;25.10
71081;BMP180;58740;50.672;18.690;2023-08-12T11:40:35;99389.60;;;25.20
71081;BMP180;58740;50.672;18.690;2023-08-12T11:43:03;99392.40;;;25.20
71081;BMP180;58740;50.672;18.690;2023-08-12T11:45:33;99387.20;;;25.20
71081;BMP180;58740;50.672;18.690;2023-08-12T11:48:01;99383.80;;;25.28
71081;BMP180;58740;50.672;18.690;2023-08-12T11:50:30;99384.60;;;25.30
71081;BMP180;58740;50.672;18.690;2023-08-12T11:52:58;99375.80;;;25.30
71081;BMP180;58740;50.672;18.690;2023-08-12T11:55:26;99373.60;;;25.38
71081;BMP180;58740;50.672;18.690;2023-08-12T11:57:54;99379.20;;;25.40
71081;BMP180;58740;50.672;18.690;2023-08-12T12:00:25;99368.60;;;25.40
71081;BMP180;58740;50.672;18.690;2023-08-12T12:02:55;99366.80;;;25.50
71081;BMP180;58740;50.672;18.690;2023-08-12T12:05:29;99360.40;;;25.48
71081;BMP180;58740;50.672;18.690;2023-08-12T12:08:00;99369.80;;;25.50
71081;BMP180;58740;50.672;18.690;2023-08-12T12:10:31;99362.40;;;25.50
71081;BMP180;58740;50.672;18.690;2023-08-12T12:13:04;99369.60;;;25.50
71081;BMP180;58740;50.672;18.690;2023-08-12T12:15:38;99373.60;;;25.50
71081;BMP180;58740;50.672;18.690;2023-08-12T12:18:13;99362.00;;;25.50
71081;BMP180;58740;50.672;18.690;2023-08-12T12:20:58;99359.00;;;25.50
71081;BMP180;58740;50.672;18.690;2023-08-12T12:23:30;99354.40;;;25.50
71081;BMP180;58740;50.672;18.690;2023-08-12T12:26:03;99364.20;;;25.50
71081;BMP180;58740;50.672;18.690;2023-08-12T12:28:31;99355.00;;;25.52
71081;BMP180;58740;50.672;18.690;2023-08-12T12:30:59;99357.80;;;25.50
71081;BMP180;58740;50.672;18.690;2023-08-12T12:33:27;99358.40;;;25.54
71081;BMP180;58740;50.672;18.690;2023-08-12T12:35:55;99351.80;;;25.60
71081;BMP180;58740;50.672;18.690;2023-08-12T12:38:27;99349.20;;;25.60
71081;BMP180;58740;50.672;18.690;2023-08-12T12:40:56;99346.40;;;25.60
71081;BMP180;58740;50.672;18.690;2023-08-12T12:43:23;99333.00;;;25.60
71081;BMP180;58740;50.672;18.690;2023-08-12T12:45:51;99337.60;;;25.60
71081;BMP180;58740;50.672;18.690;2023-08-12T12:48:19;99338.60;;;25.60
71081;BMP180;58740;50.672;18.690;2023-08-12T12:50:47;99328.20;;;25.70
71081;BMP180;58740;50.672;18.690;2023-08-12T12:53:15;99330.20;;;25.70
71081;BMP180;58740;50.672;18.690;2023-08-12T12:55:43;99326.40;;;25.70
71081;BMP180;58740;50.672;18.690;2023-08-12T12:58:12;99327.60;;;25.70
71081;BMP180;58740;50.672;18.690;2023-08-12T13:00:39;99324.20;;;25.80
71081;BMP180;58740;50.672;18.690;2023-08-12T13:03:07;99321.00;;;25.80
71081;BMP180;58740;50.672;18.690;2023-08-12T13:05:35;99313.80;;;25.80
71081;BMP180;58740;50.672;18.690;2023-08-12T13:08:03;99317.40;;;25.80
71081;BMP180;58740;50.672;18.690;2023-08-12T13:10:31;99314.00;;;25.80
71081;BMP180;58740;50.672;18.690;2023-08-12T13:12:59;99310.20;;;25.80
71081;BMP180;58740;50.672;18.690;2023-08-12T13:15:27;99308.60;;;25.80
71081;BMP180;58740;50.672;18.690;2023-08-12T13:17:54;99310.00;;;25.80
71081;BMP180;58740;50.672;18.690;2023-08-12T13:20:23;99308.00;;;25.82
71081;BMP180;58740;50.672;18.690;2023-08-12T13:22:51;99311.00;;;25.80
71081;BMP180;58740;50.672;18.690;2023-08-12T13:25:19;99299.80;;;25.80
71081;BMP180;58740;50.672;18.690;2023-08-12T13:27:47;99296.20;;;25.80
71081;BMP180;58740;50.672;18.690;2023-08-12T13:30:15;99300.00;;;25.80
71081;BMP180;58740;50.672;18.690;2023-08-12T13:32:42;99291.60;;;25.80
71081;BMP180;58740;50.672;18.690;2023-08-12T13:35:10;99289.40;;;25.80
71081;BMP180;58740;50.672;18.690;2023-08-12T13:37:39;99284.00;;;25.80
71081;BMP180;58740;50.672;18.690;2023-08-12T13:40:07;99286.40;;;25.80
71081;BMP180;58740;50.672;18.690;2023-08-12T13:42:35;99287.60;;;25.84
71081;BMP180;58740;50.672;18.690;2023-08-12T13:45:04;99286.20;;;25.90
71081;BMP180;58740;50.672;18.690;2023-08-12T13:47:34;99286.00;;;25.90
71081;BMP180;58740;50.672;18.690;2023-08-12T13:50:02;99283.00;;;25.90
71081;BMP180;58740;50.672;18.690;2023-08-12T13:52:30;99279.40;;;25.90
71081;BMP180;58740;50.672;18.690;2023-08-12T13:54:58;99276.60;;;25.90
71081;BMP180;58740;50.672;18.690;2023-08-12T13:57:26;99279.40;;;25.90
71081;BMP180;58740;50.672;18.690;2023-08-12T13:59:54;99271.40;;;25.90
71081;BMP180;58740;50.672;18.690;2023-08-12T14:02:22;99268.40;;;25.90
71081;BMP180;58740;50.672;18.690;2023-08-12T14:04:50;99268.60;;;25.90
71081;BMP180;58740;50.672;18.690;2023-08-12T14:07:18;99264.40;;;25.90
71081;BMP180;58740;50.672;18.690;2023-08-12T14:09:48;99260.60;;;25.90